Time;durP1;ratioP1;P1;durP2;ratioP2;P2;SDS_P1;SDS_P2;PMS_P1;PMS_P2;Temp;Humidity;BMP_temperature;BMP_pressure;BME280_temperature;BME280_humidity;BME280_pressure;Samples;Min_cycle;Max_cycle;Signal;HPM_P1;HPM_P2
2022/08/24 00:00:11;;;;;;;17.87;16.80;;;19.20;99.90;;;;;;4971349;28;20459;-74
2022/08/24 00:02:38;;;;;;;18.27;17.17;;;19.30;99.90;;;;;;4971305;28;20467;-75
2022/08/24 00:05:06;;;;;;;18.40;17.30;;;19.30;99.90;;;;;;4971044;28;20785;-75
2022/08/24 00:07:34;;;;;;;19.97;18.43;;;19.20;99.90;;;;;;4970887;28;20497;-76
2022/08/24 00:10:01;;;;;;;18.57;17.27;;;19.20;99.90;;;;;;4970945;28;20922;-76
2022/08/24 00:12:30;;;;;;;17.17;16.00;;;19.10;99.90;;;;;;4970745;28;20830;-75
2022/08/24 00:14:57;;;;;;;18.00;16.67;;;19.10;99.90;;;;;;4971495;28;20877;-76
2022/08/24 00:17:24;;;;;;;16.73;15.67;;;19.00;99.90;;;;;;4970944;28;20820;-75
2022/08/24 00:19:51;;;;;;;16.83;15.93;;;19.00;99.90;;;;;;4970751;28;20482;-75
2022/08/24 00:22:19;;;;;;;17.70;16.53;;;19.00;99.90;;;;;;4970788;28;20478;-73
2022/08/24 00:24:46;;;;;;;16.97;15.87;;;18.90;99.90;;;;;;4970768;28;20820;-73
2022/08/24 00:27:12;;;;;;;18.23;17.03;;;18.90;99.90;;;;;;4970757;28;20495;-76
2022/08/24 00:29:40;;;;;;;19.30;17.90;;;18.90;99.90;;;;;;4971041;28;20804;-76
2022/08/24 00:32:07;;;;;;;19.00;17.50;;;18.80;99.90;;;;;;4971039;28;20457;-75
2022/08/24 00:34:34;;;;;;;18.80;17.13;;;18.80;99.90;;;;;;4970987;28;20555;-75
2022/08/24 00:37:01;;;;;;;18.37;17.10;;;18.70;99.90;;;;;;4970215;28;20847;-76
2022/08/24 00:39:28;;;;;;;18.17;17.07;;;18.70;99.90;;;;;;4970796;28;20455;-74
2022/08/24 00:41:55;;;;;;;19.73;18.47;;;18.70;99.90;;;;;;4970824;28;20452;-76
2022/08/24 00:44:23;;;;;;;19.43;18.27;;;18.60;99.90;;;;;;4970696;28;20455;-76
2022/08/24 00:46:54;;;;;;;18.60;17.60;;;18.50;99.90;;;;;;4970555;28;20491;-76
2022/08/24 00:49:27;;;;;;;18.77;17.60;;;18.50;99.90;;;;;;4970512;28;20541;-76
2022/08/24 00:52:03;;;;;;;20.40;19.30;;;18.50;99.90;;;;;;4970822;28;20535;-77
2022/08/24 00:54:33;;;;;;;20.83;19.53;;;18.40;99.90;;;;;;4970967;28;20517;-75
2022/08/24 00:57:04;;;;;;;21.33;19.97;;;18.40;99.90;;;;;;4970683;28;20444;-76
2022/08/24 00:59:36;;;;;;;21.00;19.73;;;18.40;99.90;;;;;;4970418;28;20559;-74
2022/08/24 01:02:09;;;;;;;19.33;18.13;;;18.30;99.90;;;;;;4970256;28;20463;-74
2022/08/24 01:04:48;;;;;;;21.47;20.27;;;18.30;99.90;;;;;;4970473;28;20558;-74
2022/08/24 01:07:15;;;;;;;20.53;19.30;;;18.30;99.90;;;;;;4970283;28;20487;-74
2022/08/24 01:09:42;;;;;;;20.73;19.43;;;18.20;99.90;;;;;;4970438;28;20455;-74
2022/08/24 01:12:09;;;;;;;20.07;18.97;;;18.20;99.90;;;;;;4969766;28;20965;-74
2022/08/24 01:14:37;;;;;;;21.57;19.93;;;18.20;99.90;;;;;;4970270;28;20466;-73
2022/08/24 01:19:54;;;;;;;21.60;20.00;;;18.10;99.90;;;;;;4970294;28;20516;-75
2022/08/24 01:22:32;;;;;;;20.07;18.67;;;18.00;99.90;;;;;;4970027;28;20464;-76
2022/08/24 01:25:00;;;;;;;20.60;19.23;;;18.00;99.90;;;;;;4970333;28;20483;-75
2022/08/24 01:27:28;;;;;;;20.87;19.47;;;18.00;99.90;;;;;;4970686;28;20894;-76
2022/08/24 01:29:57;;;;;;;21.40;19.53;;;17.90;99.90;;;;;;4970344;28;20971;-75
2022/08/24 01:32:26;;;;;;;20.90;19.50;;;17.90;99.90;;;;;;4969954;28;20863;-76
2022/08/24 01:34:53;;;;;;;21.10;19.57;;;17.90;99.90;;;;;;4969844;28;20506;-75
2022/08/24 01:37:21;;;;;;;21.27;19.97;;;17.80;99.90;;;;;;4969745;28;21091;-76
2022/08/24 01:39:49;;;;;;;21.27;19.97;;;17.80;99.90;;;;;;4969959;28;20466;-76
2022/08/24 01:42:17;;;;;;;21.10;19.63;;;17.80;99.90;;;;;;4969761;28;20468;-76
2022/08/24 01:44:45;;;;;;;22.87;21.13;;;17.80;99.90;;;;;;4969905;28;20456;-76
2022/08/24 01:47:14;;;;;;;20.17;18.87;;;17.70;99.90;;;;;;4970027;28;20877;-76
2022/08/24 01:49:42;;;;;;;21.33;19.73;;;17.70;99.90;;;;;;4973420;28;20452;-76
2022/08/24 01:52:14;;;;;;;21.13;19.03;;;17.60;99.90;;;;;;4973429;28;20459;-74
2022/08/24 01:54:41;;;;;;;20.13;18.83;;;17.60;99.90;;;;;;4973536;28;20566;-74
2022/08/24 01:57:09;;;;;;;20.57;19.27;;;17.60;99.90;;;;;;4973297;28;20506;-74
2022/08/24 01:59:37;;;;;;;21.57;20.23;;;17.60;99.90;;;;;;4973198;28;20459;-74
2022/08/24 02:02:09;;;;;;;22.10;20.43;;;17.50;99.90;;;;;;4973126;28;20820;-74
2022/08/24 02:04:36;;;;;;;22.40;20.90;;;17.50;99.90;;;;;;4973342;28;20455;-75
2022/08/24 02:07:04;;;;;;;22.30;21.00;;;17.50;99.90;;;;;;4973030;28;20452;-74
2022/08/24 02:09:31;;;;;;;21.90;20.70;;;17.50;99.90;;;;;;4973165;28;20467;-73
2022/08/24 02:11:58;;;;;;;20.80;19.50;;;17.40;99.90;;;;;;4972957;28;20483;-72
2022/08/24 02:14:25;;;;;;;22.20;20.80;;;17.40;99.90;;;;;;4973089;28;20526;-73
2022/08/24 02:16:53;;;;;;;22.83;21.10;;;17.40;99.90;;;;;;4972624;28;20448;-74
2022/08/24 02:19:20;;;;;;;18.90;17.90;;;17.30;99.90;;;;;;4972788;28;20456;-74
2022/08/24 02:21:46;;;;;;;23.23;21.70;;;17.30;99.90;;;;;;4972816;28;20460;-73
2022/08/24 02:24:13;;;;;;;20.47;19.17;;;17.30;99.90;;;;;;4972947;28;20456;-73
2022/08/24 02:26:40;;;;;;;20.50;19.23;;;17.20;99.90;;;;;;4972917;28;20451;-73
2022/08/24 02:29:07;;;;;;;20.63;19.47;;;17.20;99.90;;;;;;4972633;28;20484;-74
2022/08/24 02:31:35;;;;;;;21.03;19.77;;;17.20;99.90;;;;;;4972845;28;20462;-74
2022/08/24 02:34:04;;;;;;;21.57;20.43;;;17.20;99.90;;;;;;4972839;28;20467;-74
2022/08/24 02:36:31;;;;;;;22.13;20.73;;;17.10;99.90;;;;;;4972774;28;20530;-75
2022/08/24 02:38:58;;;;;;;19.90;18.70;;;17.10;99.90;;;;;;4973010;28;20530;-73
2022/08/24 02:41:25;;;;;;;20.90;19.77;;;17.10;99.90;;;;;;4972439;28;20459;-73
2022/08/24 02:43:52;;;;;;;20.70;19.60;;;17.10;99.90;;;;;;4972474;28;20452;-75
2022/08/24 02:46:20;;;;;;;20.23;18.87;;;17.10;99.90;;;;;;4972297;28;20671;-75
2022/08/24 02:48:46;;;;;;;21.47;20.07;;;17.00;99.90;;;;;;4972127;28;21008;-76
2022/08/24 02:51:21;;;;;;;19.70;18.67;;;17.00;99.90;;;;;;4972345;28;20460;-76
2022/08/24 02:53:48;;;;;;;20.63;19.37;;;16.90;99.90;;;;;;4972289;28;20459;-76
2022/08/24 02:56:16;;;;;;;21.33;20.20;;;16.90;99.90;;;;;;4972248;28;20462;-75
2022/08/24 02:58:42;;;;;;;19.80;18.70;;;16.90;99.90;;;;;;4972132;28;20552;-76
2022/08/24 03:01:10;;;;;;;21.63;20.43;;;16.80;99.90;;;;;;4971939;28;20464;-75
2022/08/24 03:03:36;;;;;;;22.83;21.17;;;16.80;99.90;;;;;;4972055;28;20902;-75
2022/08/24 03:06:04;;;;;;;20.03;18.87;;;16.80;99.90;;;;;;4971647;28;20846;-76
2022/08/24 03:08:32;;;;;;;21.03;19.93;;;16.80;99.90;;;;;;4971646;28;20523;-76
2022/08/24 03:10:59;;;;;;;22.23;20.93;;;16.80;99.90;;;;;;4971684;28;20478;-76
2022/08/24 03:13:26;;;;;;;23.43;21.97;;;16.80;99.90;;;;;;4971620;28;20957;-76
2022/08/24 03:15:54;;;;;;;21.87;20.47;;;16.80;99.90;;;;;;4971548;28;20452;-75
2022/08/24 03:18:21;;;;;;;19.77;18.77;;;16.80;99.90;;;;;;4972133;28;20645;-76
2022/08/24 03:20:52;;;;;;;20.03;18.30;;;16.70;99.90;;;;;;4972056;28;20506;-76
2022/08/24 03:23:18;;;;;;;21.87;20.57;;;16.70;99.90;;;;;;4971883;28;20444;-76
2022/08/24 03:25:47;;;;;;;21.40;20.10;;;16.70;99.90;;;;;;4971167;28;20795;-76
2022/08/24 03:28:14;;;;;;;20.43;19.13;;;16.70;99.90;;;;;;4971629;28;20523;-76
2022/08/24 03:30:41;;;;;;;22.13;20.70;;;16.70;99.90;;;;;;4971593;28;20653;-76
2022/08/24 03:33:08;;;;;;;20.63;19.53;;;16.70;99.90;;;;;;4971323;28;20473;-75
2022/08/24 03:35:34;;;;;;;21.40;20.20;;;16.60;99.90;;;;;;4971272;28;20893;-74
2022/08/24 03:38:01;;;;;;;20.40;19.20;;;16.60;99.90;;;;;;4971268;28;20824;-74
2022/08/24 03:40:28;;;;;;;21.70;20.43;;;16.60;99.90;;;;;;4971407;28;20460;-75
2022/08/24 03:42:56;;;;;;;21.33;20.10;;;16.60;99.90;;;;;;4971377;28;20459;-75
2022/08/24 03:45:23;;;;;;;20.37;19.17;;;16.60;99.90;;;;;;4971174;28;20471;-75
2022/08/24 03:47:50;;;;;;;20.87;19.77;;;16.60;99.90;;;;;;4970961;28;20895;-75
2022/08/24 03:50:17;;;;;;;21.27;19.93;;;16.60;99.90;;;;;;4970998;28;20857;-75
2022/08/24 03:52:44;;;;;;;25.57;23.73;;;16.60;99.90;;;;;;4970980;28;20456;-75
2022/08/24 03:55:12;;;;;;;21.70;20.10;;;16.60;99.90;;;;;;4971120;28;20835;-75
2022/08/24 03:57:39;;;;;;;21.67;20.47;;;16.50;99.90;;;;;;4970976;28;20458;-75
2022/08/24 04:00:10;;;;;;;22.00;20.60;;;16.50;99.90;;;;;;4970881;28;20460;-75
2022/08/24 04:02:38;;;;;;;22.50;21.07;;;16.50;99.90;;;;;;4970795;28;20521;-75
2022/08/24 04:05:06;;;;;;;22.50;21.20;;;16.50;99.90;;;;;;4970691;28;20455;-76
2022/08/24 04:07:32;;;;;;;22.50;21.10;;;16.50;99.90;;;;;;4970469;28;20459;-76
2022/08/24 04:10:00;;;;;;;23.23;21.73;;;16.50;99.90;;;;;;4970254;28;20456;-76
2022/08/24 04:12:27;;;;;;;23.40;21.70;;;16.50;99.90;;;;;;4970865;28;20513;-76
2022/08/24 04:14:54;;;;;;;22.80;20.90;;;16.50;99.90;;;;;;4970908;28;20447;-76
2022/08/24 04:17:22;;;;;;;22.87;21.47;;;16.50;99.90;;;;;;4970898;28;20456;-77
2022/08/24 04:19:57;;;;;;;23.93;22.43;;;16.40;99.90;;;;;;4970478;28;20455;-76
2022/08/24 04:22:23;;;;;;;23.00;21.60;;;16.40;99.90;;;;;;4970429;28;20597;-76
2022/08/24 04:24:51;;;;;;;24.30;22.53;;;16.40;99.90;;;;;;4970341;28;20659;-76
2022/08/24 04:27:18;;;;;;;24.50;22.90;;;16.40;99.90;;;;;;4970266;28;20451;-76
2022/08/24 04:29:44;;;;;;;24.20;22.60;;;16.40;99.90;;;;;;4970284;28;20506;-75
2022/08/24 04:32:11;;;;;;;22.80;21.50;;;16.40;99.90;;;;;;4970494;28;20539;-79
2022/08/24 04:34:39;;;;;;;23.60;22.13;;;16.40;99.90;;;;;;4970424;28;20638;-75
2022/08/24 04:37:06;;;;;;;23.93;22.10;;;16.40;99.90;;;;;;4970355;28;20804;-75
2022/08/24 04:39:33;;;;;;;22.27;20.97;;;16.50;99.90;;;;;;4970312;28;20483;-75
2022/08/24 04:41:59;;;;;;;22.77;21.47;;;16.50;99.90;;;;;;4970551;28;20546;-74
2022/08/24 04:44:26;;;;;;;22.13;20.70;;;16.50;99.90;;;;;;4970619;28;20455;-75
2022/08/24 04:46:53;;;;;;;22.87;20.90;;;16.50;99.90;;;;;;4970485;28;20824;-75
2022/08/24 04:49:20;;;;;;;22.67;21.07;;;16.50;99.90;;;;;;4970101;28;20587;-76
2022/08/24 04:51:48;;;;;;;22.53;21.00;;;16.40;99.90;;;;;;4970376;28;20476;-76
2022/08/24 04:54:15;;;;;;;22.70;21.17;;;16.50;99.90;;;;;;4970230;28;20957;-79
2022/08/24 04:56:42;;;;;;;22.43;21.03;;;16.50;99.90;;;;;;4966678;28;20490;-77
2022/08/24 04:59:09;;;;;;;22.33;20.73;;;16.50;99.90;;;;;;4970589;28;20462;-77
2022/08/24 05:01:35;;;;;;;25.30;23.43;;;16.50;99.90;;;;;;4970487;28;20459;-74
2022/08/24 05:04:03;;;;;;;22.20;20.90;;;16.60;99.90;;;;;;4970955;28;20849;-77
2022/08/24 05:06:32;;;;;;;24.37;22.40;;;16.70;99.90;;;;;;4971592;28;20583;-77
2022/08/24 05:09:02;;;;;;;23.93;22.23;;;16.80;99.90;;;;;;4970813;28;21016;-75
2022/08/24 05:11:29;;;;;;;22.73;21.33;;;16.80;99.90;;;;;;4970863;28;20482;-75
2022/08/24 05:13:57;;;;;;;24.87;23.13;;;16.80;99.90;;;;;;4970726;28;20487;-74
2022/08/24 05:16:25;;;;;;;24.07;22.03;;;16.80;99.90;;;;;;4970796;28;20451;-74
2022/08/24 05:18:53;;;;;;;23.80;22.30;;;16.90;99.90;;;;;;4971031;28;20461;-74
2022/08/24 05:21:22;;;;;;;23.63;21.60;;;16.90;99.90;;;;;;4970964;28;20796;-76
2022/08/24 05:23:50;;;;;;;23.67;22.27;;;17.00;99.90;;;;;;4973662;28;20902;-76
2022/08/24 05:26:21;;;;;;;22.90;21.40;;;17.20;99.90;;;;;;4974475;28;20459;-76
2022/08/24 05:28:47;;;;;;;24.03;21.93;;;17.60;99.90;;;;;;4974456;28;20491;-74
2022/08/24 05:31:16;;;;;;;21.67;20.20;;;18.00;99.90;;;;;;4974591;28;20530;-76
2022/08/24 05:33:43;;;;;;;22.53;20.83;;;18.20;99.90;;;;;;4974781;28;20455;-74
2022/08/24 05:36:17;;;;;;;22.60;20.90;;;18.60;99.90;;;;;;4974637;28;20459;-74
2022/08/24 05:38:44;;;;;;;22.07;20.27;;;18.80;99.90;;;;;;4974561;28;21020;-76
2022/08/24 05:41:11;;;;;;;21.97;20.37;;;18.90;99.90;;;;;;4974440;28;20454;-73
2022/08/24 05:43:39;;;;;;;21.83;20.43;;;19.20;99.90;;;;;;4974297;28;20459;-74
2022/08/24 05:46:06;;;;;;;19.27;18.07;;;19.50;99.90;;;;;;4974410;28;20455;-73
2022/08/24 05:48:34;;;;;;;19.77;18.27;;;19.80;99.90;;;;;;4974070;28;20494;-73
2022/08/24 05:51:01;;;;;;;20.10;18.57;;;20.00;99.90;;;;;;4973717;28;20479;-74
2022/08/24 05:53:28;;;;;;;19.20;18.00;;;20.20;99.90;;;;;;4974219;28;20462;-74
2022/08/24 05:55:55;;;;;;;19.33;18.20;;;20.30;99.90;;;;;;4973902;28;20447;-74
2022/08/24 05:58:22;;;;;;;17.00;16.10;;;20.20;99.90;;;;;;4973591;28;20463;-74
2022/08/24 06:00:50;;;;;;;16.23;15.13;;;20.20;99.90;;;;;;4973513;28;20475;-74
2022/08/24 06:03:16;;;;;;;18.87;17.57;;;20.30;99.90;;;;;;4973441;28;20466;-74
2022/08/24 06:05:47;;;;;;;18.10;17.00;;;20.50;99.90;;;;;;4973627;28;20458;-74
2022/08/24 06:08:15;;;;;;;17.60;16.60;;;20.90;99.90;;;;;;4973432;28;20511;-73
2022/08/24 06:10:43;;;;;;;17.77;16.63;;;21.40;99.90;;;;;;4973532;28;20463;-74
2022/08/24 06:13:11;;;;;;;18.53;17.37;;;21.70;99.90;;;;;;4973344;28;20475;-74
2022/08/24 06:15:39;;;;;;;18.30;17.00;;;22.10;99.90;;;;;;4973150;28;20451;-73
2022/08/24 06:18:08;;;;;;;17.60;16.70;;;22.10;99.90;;;;;;4973161;28;20452;-74
2022/08/24 06:20:40;;;;;;;17.03;16.10;;;22.20;99.90;;;;;;4973235;28;20459;-74
2022/08/24 06:23:07;;;;;;;17.60;16.57;;;22.20;99.90;;;;;;4973166;28;20447;-74
2022/08/24 06:28:18;;;;;;;17.40;16.40;;;22.40;99.90;;;;;;4973127;28;20438;-74
2022/08/24 06:30:45;;;;;;;16.60;15.70;;;22.30;99.90;;;;;;4972949;28;20514;-75
2022/08/24 06:33:13;;;;;;;18.60;17.20;;;22.20;99.90;;;;;;4972785;28;20452;-75
2022/08/24 06:35:40;;;;;;;19.00;17.60;;;22.20;99.90;;;;;;4972718;28;20455;-77
2022/08/24 06:38:07;;;;;;;18.03;16.67;;;22.50;99.90;;;;;;4972782;28;20483;-75
2022/08/24 06:40:34;;;;;;;15.53;14.70;;;22.70;99.90;;;;;;4972718;28;20856;-75
2022/08/24 06:43:03;;;;;;;16.60;15.47;;;22.90;99.90;;;;;;4972645;28;20603;-74
2022/08/24 06:45:29;;;;;;;16.83;15.83;;;22.70;99.90;;;;;;4973066;28;20530;-73
2022/08/24 06:47:56;;;;;;;14.70;13.90;;;22.60;99.90;;;;;;4972840;28;20462;-73
2022/08/24 06:50:25;;;;;;;14.63;14.00;;;22.80;99.80;;;;;;4972462;28;20488;-74
2022/08/24 06:52:51;;;;;;;18.17;16.93;;;23.10;98.80;;;;;;4972451;28;20801;-73
2022/08/24 06:55:18;;;;;;;16.97;16.00;;;23.10;98.80;;;;;;4972287;28;20475;-73
2022/08/24 06:57:45;;;;;;;16.17;14.73;;;23.40;98.10;;;;;;4972494;28;20466;-74
2022/08/24 07:00:13;;;;;;;17.37;16.40;;;23.90;97.10;;;;;;4972660;28;20866;-72
2022/08/24 07:02:41;;;;;;;16.90;16.10;;;24.00;96.60;;;;;;4972420;28;20950;-72
2022/08/24 07:05:08;;;;;;;17.27;16.27;;;24.40;96.10;;;;;;4972261;28;20487;-73
2022/08/24 07:07:36;;;;;;;16.73;15.93;;;24.50;95.50;;;;;;4972365;28;20510;-75
2022/08/24 07:10:11;;;;;;;16.10;15.00;;;24.30;95.60;;;;;;4971968;28;20579;-86
2022/08/24 07:12:37;;;;;;;16.97;16.17;;;24.30;95.80;;;;;;4972133;28;20586;-84
2022/08/24 07:15:05;;;;;;;16.27;15.57;;;24.30;95.50;;;;;;4970214;28;20771;-83
2022/08/24 07:17:32;;;;;;;15.97;14.90;;;24.50;94.90;;;;;;4970935;28;20452;-82
2022/08/24 07:19:58;;;;;;;17.50;16.50;;;24.90;94.40;;;;;;4971864;28;20452;-80
2022/08/24 07:22:25;;;;;;;17.30;15.90;;;25.40;94.00;;;;;;4971696;28;20459;-80
2022/08/24 07:24:53;;;;;;;16.30;15.47;;;25.10;93.70;;;;;;4971673;28;20455;-79
2022/08/24 07:27:22;;;;;;;16.43;15.60;;;25.50;93.80;;;;;;4971528;28;20452;-79
2022/08/24 07:29:49;;;;;;;16.10;15.40;;;25.70;93.60;;;;;;4971295;28;20494;-80
2022/08/24 07:32:15;;;;;;;16.83;15.80;;;26.10;92.00;;;;;;4971301;28;20461;-80
2022/08/24 07:34:42;;;;;;;17.57;16.70;;;26.10;92.10;;;;;;4971340;28;20507;-81
2022/08/24 07:37:09;;;;;;;16.87;15.73;;;26.40;91.30;;;;;;4970930;28;20543;-79
2022/08/24 07:39:35;;;;;;;15.90;15.30;;;26.60;90.50;;;;;;4971042;28;20452;-80
2022/08/24 07:42:04;;;;;;;16.23;15.30;;;26.90;89.30;;;;;;4970637;28;20454;-80
2022/08/24 07:44:31;;;;;;;15.90;15.20;;;27.20;89.60;;;;;;4970227;28;20531;-80
2022/08/24 07:46:58;;;;;;;17.60;16.50;;;27.00;88.30;;;;;;4970450;28;20475;-80
2022/08/24 07:49:25;;;;;;;16.93;16.13;;;26.90;89.50;;;;;;4970334;28;20483;-80
2022/08/24 07:51:52;;;;;;;16.43;15.63;;;27.00;88.60;;;;;;4967890;28;20440;-81
2022/08/24 07:54:20;;;;;;;18.83;17.77;;;26.90;89.50;;;;;;4970884;28;20515;-80
2022/08/24 07:56:48;;;;;;;17.30;16.20;;;27.00;88.70;;;;;;4970418;28;20451;-81
2022/08/24 07:59:16;;;;;;;19.13;18.03;;;27.00;87.30;;;;;;4970448;28;20447;-81
2022/08/24 08:01:42;;;;;;;18.53;17.43;;;27.30;87.80;;;;;;4970306;28;20448;-80
2022/08/24 08:04:09;;;;;;;18.53;17.33;;;27.80;85.70;;;;;;4969960;28;20444;-81
2022/08/24 08:06:36;;;;;;;18.53;17.63;;;28.70;82.50;;;;;;4970068;28;20474;-80
2022/08/24 08:09:05;;;;;;;18.47;17.37;;;29.50;79.50;;;;;;4969800;28;20526;-81
2022/08/24 08:11:32;;;;;;;19.60;18.20;;;30.20;75.80;;;;;;4969773;28;20475;-83
2022/08/24 08:13:59;;;;;;;18.83;17.43;;;30.40;75.10;;;;;;4970362;28;21017;-82
2022/08/24 08:16:27;;;;;;;18.13;17.03;;;30.90;72.00;;;;;;4970736;28;20559;-79
2022/08/24 08:18:54;;;;;;;18.93;17.60;;;31.50;70.20;;;;;;4970624;28;20609;-79
2022/08/24 08:24:15;;;;;;;17.83;16.93;;;32.40;65.90;;;;;;4970415;28;20538;-79
2022/08/24 08:26:42;;;;;;;17.63;16.83;;;33.20;62.10;;;;;;4970488;28;20933;-78
2022/08/24 08:29:10;;;;;;;18.07;17.20;;;33.80;60.20;;;;;;4970186;28;20494;-79
2022/08/24 08:31:38;;;;;;;18.87;17.70;;;34.00;58.30;;;;;;4970294;28;20455;-78
2022/08/24 08:34:05;;;;;;;21.00;19.20;;;33.00;58.90;;;;;;4970148;28;20686;-78
2022/08/24 08:36:32;;;;;;;20.53;19.33;;;32.40;59.90;;;;;;4970283;28;20558;-77
2022/08/24 08:39:00;;;;;;;21.10;19.63;;;32.20;61.10;;;;;;4970468;28;20530;-78
2022/08/24 08:42:20;;;;;;;19.60;18.30;;;32.80;59.10;;;;;;4970310;28;20810;-78
2022/08/24 08:44:55;;;;;;;20.63;19.03;;;34.00;57.10;;;;;;4938916;28;20804;-79
2022/08/24 08:47:44;;;;;;;21.60;20.10;;;35.10;54.10;;;;;;4970146;28;20458;-78
2022/08/24 08:50:20;;;;;;;20.43;19.23;;;36.10;51.40;;;;;;4970043;28;20495;-78
2022/08/24 08:53:17;;;;;;;19.47;18.40;;;36.50;50.40;;;;;;4969908;28;20613;-78
2022/08/24 08:55:52;;;;;;;19.30;18.03;;;36.60;49.10;;;;;;4970202;28;20454;-78
2022/08/24 08:58:38;;;;;;;19.63;18.47;;;36.70;48.00;;;;;;4973740;28;20485;-79
2022/08/24 09:01:12;;;;;;;20.27;19.17;;;37.20;46.70;;;;;;4973960;28;20455;-78
2022/08/24 09:04:05;;;;;;;21.20;20.10;;;37.40;45.40;;;;;;4973862;28;20783;-78
2022/08/24 09:06:50;;;;;;;20.50;19.53;;;37.40;44.80;;;;;;4958253;28;20961;-78
2022/08/24 09:09:28;;;;;;;17.83;17.03;;;36.90;44.60;;;;;;4973748;28;20456;-77
2022/08/24 09:12:08;;;;;;;18.37;17.50;;;36.40;45.10;;;;;;4973903;28;20504;-77
2022/08/24 09:15:12;;;;;;;18.00;17.10;;;37.10;44.50;;;;;;4974042;28;20554;-78
2022/08/24 09:18:05;;;;;;;20.37;19.30;;;37.60;43.40;;;;;;4973833;28;20462;-77
2022/08/24 09:21:01;;;;;;;18.40;17.30;;;37.80;42.20;;;;;;4973504;28;20447;-78
2022/08/24 09:23:36;;;;;;;17.80;17.10;;;36.70;43.80;;;;;;4973825;28;20826;-77
2022/08/24 09:26:23;;;;;;;17.90;17.00;;;36.00;43.90;;;;;;4973326;28;20954;-77
2022/08/24 09:28:58;;;;;;;15.93;15.23;;;36.60;42.80;;;;;;4973480;28;20487;-77
2022/08/24 09:31:42;;;;;;;15.83;15.23;;;36.60;40.40;;;;;;4973677;28;20832;-77
2022/08/24 09:34:19;;;;;;;17.57;16.80;;;35.20;41.10;;;;;;4973519;28;20452;-77
2022/08/24 09:37:04;;;;;;;15.27;14.77;;;34.50;41.80;;;;;;4973524;28;20458;-76
2022/08/24 09:39:37;;;;;;;15.60;15.10;;;33.70;43.20;;;;;;4973423;28;20463;-77
2022/08/24 09:43:01;;;;;;;15.77;15.17;;;33.80;42.30;;;;;;4973244;28;20444;-77
2022/08/24 09:46:04;;;;;;;15.07;14.57;;;34.10;42.50;;;;;;4973283;28;20471;-77
2022/08/24 09:48:53;;;;;;;16.23;15.63;;;34.20;43.00;;;;;;4972991;28;20451;-77
2022/08/24 09:52:03;;;;;;;17.37;16.67;;;34.60;43.20;;;;;;4972899;28;21084;-77
2022/08/24 09:55:09;;;;;;;16.50;16.00;;;35.00;42.30;;;;;;4973120;28;20892;-76
2022/08/24 09:57:52;;;;;;;17.10;16.50;;;35.00;42.80;;;;;;4972985;28;20525;-77
2022/08/24 10:00:24;;;;;;;17.13;16.43;;;35.00;42.70;;;;;;4972867;28;20490;-77
2022/08/24 10:03:10;;;;;;;15.80;15.20;;;34.50;42.90;;;;;;4972761;28;20827;-77
2022/08/24 10:05:56;;;;;;;16.73;15.77;;;34.80;42.60;;;;;;4972377;28;20459;-77
2022/08/24 10:08:34;;;;;;;16.30;15.70;;;35.20;42.50;;;;;;4971884;28;20458;-76
2022/08/24 10:11:15;;;;;;;17.20;16.40;;;35.40;42.90;;;;;;4972311;28;20495;-77
2022/08/24 10:13:54;;;;;;;17.63;17.00;;;36.50;41.80;;;;;;4972629;28;20479;-77
2022/08/24 10:16:35;;;;;;;16.33;15.80;;;36.30;41.60;;;;;;4972323;28;20469;-78
2022/08/24 10:19:18;;;;;;;16.77;16.07;;;37.30;40.80;;;;;;4972058;28;20447;-77
2022/08/24 10:21:57;;;;;;;16.80;16.20;;;37.00;41.10;;;;;;4972676;28;20455;-77
2022/08/24 10:24:53;;;;;;;17.83;17.23;;;38.30;39.70;;;;;;4972595;28;20463;-77
2022/08/24 10:27:39;;;;;;;19.17;18.37;;;40.00;37.60;;;;;;4972235;28;20451;-77
2022/08/24 10:30:27;;;;;;;18.50;17.70;;;40.00;37.00;;;;;;4971988;28;20486;-77
2022/08/24 10:33:04;;;;;;;17.80;17.20;;;39.60;36.60;;;;;;4971753;28;20458;-76
2022/08/24 10:35:37;;;;;;;17.90;17.27;;;39.00;37.80;;;;;;4971991;28;20467;-77
2022/08/24 10:41:48;;;;;;;16.67;16.10;;;38.90;37.30;;;;;;4972275;28;20427;-77
2022/08/24 10:44:41;;;;;;;17.23;16.47;;;37.40;39.20;;;;;;4976509;28;20458;-77
2022/08/24 10:47:18;;;;;;;17.70;16.70;;;36.70;39.80;;;;;;4980887;28;20803;-77
2022/08/24 10:50:14;;;;;;;17.77;16.80;;;37.20;40.10;;;;;;4970666;28;21024;-79
2022/08/24 10:52:58;;;;;;;16.43;15.73;;;38.40;38.00;;;;;;4958953;28;20459;-79
2022/08/24 10:55:28;;;;;;;18.03;17.23;;;39.20;37.30;;;;;;4971188;28;20470;-80
2022/08/24 10:58:19;;;;;;;16.93;16.23;;;39.80;36.40;;;;;;4971221;28;20856;-79
2022/08/24 11:00:46;;;;;;;16.13;15.53;;;40.40;35.70;;;;;;4971139;28;20506;-79
2022/08/24 11:03:17;;;;;;;16.57;16.00;;;39.00;36.70;;;;;;4971203;28;20475;-80
2022/08/24 11:05:47;;;;;;;16.90;16.30;;;38.10;36.40;;;;;;4971289;28;20874;-80
2022/08/24 11:08:20;;;;;;;15.93;15.43;;;37.30;37.40;;;;;;4971222;28;20451;-80
2022/08/24 11:11:05;;;;;;;17.47;16.87;;;36.60;38.20;;;;;;4971042;28;20583;-79
2022/08/24 11:13:35;;;;;;;17.27;16.57;;;36.50;39.00;;;;;;4971122;28;20491;-79
2022/08/24 11:16:03;;;;;;;17.47;16.87;;;37.20;38.50;;;;;;4970896;28;20479;-79
2022/08/24 11:18:48;;;;;;;16.10;15.60;;;36.90;38.10;;;;;;4971159;28;20486;-78
2022/08/24 11:21:35;;;;;;;16.03;15.47;;;36.60;36.90;;;;;;4969674;28;20456;-78
2022/08/24 11:24:04;;;;;;;15.73;15.13;;;36.40;38.40;;;;;;4969387;28;20487;-77
2022/08/24 11:26:31;;;;;;;15.70;15.10;;;35.80;38.70;;;;;;4971285;28;20452;-77
2022/08/24 11:29:04;;;;;;;15.73;15.23;;;36.40;38.00;;;;;;4971346;28;20459;-77
2022/08/24 11:31:38;;;;;;;16.60;16.00;;;36.70;37.50;;;;;;4971428;28;20491;-76
2022/08/24 11:34:08;;;;;;;17.00;16.40;;;37.60;36.50;;;;;;4971186;28;20526;-77
2022/08/24 11:36:38;;;;;;;15.57;14.97;;;38.40;34.70;;;;;;4970894;28;20815;-77
2022/08/24 11:39:15;;;;;;;14.90;14.40;;;38.30;34.10;;;;;;4970890;28;20668;-77
2022/08/24 11:41:53;;;;;;;16.20;15.70;;;36.60;35.20;;;;;;4971259;28;20554;-77
2022/08/24 11:44:41;;;;;;;16.77;16.17;;;35.30;37.20;;;;;;4971035;28;21001;-77
2022/08/24 11:47:30;;;;;;;15.90;15.40;;;35.90;36.90;;;;;;4970670;28;20452;-77
2022/08/24 11:50:03;;;;;;;17.63;17.03;;;36.90;36.00;;;;;;4961722;28;20463;-78
2022/08/24 11:52:44;;;;;;;17.77;17.17;;;37.70;35.00;;;;;;4971739;28;20457;-79
2022/08/24 11:55:17;;;;;;;16.00;15.50;;;38.10;34.50;;;;;;4971361;28;20463;-79
2022/08/24 11:57:50;;;;;;;15.97;15.43;;;37.50;34.50;;;;;;4971202;28;20451;-80
2022/08/24 12:00:21;;;;;;;15.87;15.13;;;36.30;36.50;;;;;;4971505;28;20813;-79
2022/08/24 12:02:59;;;;;;;16.30;15.70;;;36.30;36.60;;;;;;4970302;28;20519;-78
2022/08/24 12:05:34;;;;;;;17.03;16.40;;;36.10;37.00;;;;;;4952535;28;20467;-79
2022/08/24 12:08:10;;;;;;;15.60;15.00;;;35.80;37.80;;;;;;4970997;28;20911;-78
2022/08/24 12:10:45;;;;;;;16.50;15.90;;;36.10;37.70;;;;;;4970338;28;21032;-77
2022/08/24 12:13:30;;;;;;;16.20;15.70;;;35.80;37.30;;;;;;4970991;28;20494;-78
2022/08/24 12:16:07;;;;;;;16.20;15.60;;;36.60;36.40;;;;;;4969347;28;20550;-78
2022/08/24 12:18:45;;;;;;;16.20;15.60;;;37.30;35.00;;;;;;4971053;28;20977;-78
2022/08/24 12:21:13;;;;;;;15.60;15.00;;;36.40;35.70;;;;;;4970679;28;20554;-77
2022/08/24 12:23:43;;;;;;;15.73;15.23;;;36.10;36.40;;;;;;4970658;28;20562;-77
2022/08/24 12:26:14;;;;;;;16.90;16.30;;;35.50;37.30;;;;;;4970725;28;20946;-77
2022/08/24 12:28:44;;;;;;;15.07;14.50;;;35.70;36.90;;;;;;4970960;28;20463;-78
2022/08/24 12:31:21;;;;;;;15.57;15.07;;;35.40;35.90;;;;;;4970442;28;20539;-78
2022/08/24 12:33:52;;;;;;;15.03;14.53;;;35.30;36.10;;;;;;4970957;28;20455;-78
2022/08/24 12:36:25;;;;;;;15.97;15.47;;;35.50;36.00;;;;;;4960499;28;20475;-78
2022/08/24 12:39:04;;;;;;;15.87;15.37;;;35.60;36.20;;;;;;4953693;28;20463;-79
2022/08/24 12:41:34;;;;;;;16.03;15.43;;;35.40;36.20;;;;;;4968147;28;20447;-79
2022/08/24 12:44:08;;;;;;;15.67;15.17;;;34.90;37.20;;;;;;4970949;28;20535;-81
2022/08/24 12:46:37;;;;;;;15.40;14.90;;;34.80;37.40;;;;;;4971230;28;20580;-80
2022/08/24 12:49:11;;;;;;;15.37;14.77;;;33.80;38.00;;;;;;4970799;28;20539;-81
2022/08/24 12:52:01;;;;;;;15.50;14.90;;;33.60;38.90;;;;;;4971030;28;20494;-81
2022/08/24 12:54:50;;;;;;;15.13;14.63;;;33.80;38.20;;;;;;4971348;28;20463;-81
2022/08/24 12:57:35;;;;;;;14.70;14.20;;;33.60;37.70;;;;;;4971133;28;20456;-81
2022/08/24 13:00:07;;;;;;;14.03;13.63;;;33.30;38.20;;;;;;4970956;28;20463;-80
2022/08/24 13:02:39;;;;;;;15.20;14.70;;;33.50;38.40;;;;;;4971154;28;20463;-80